Date,TemperatureHighF,TemperatureAvgF,TemperatureLowF,DewpointHighF,DewpointAvgF,DewpointLowF,HumidityHigh,HumidityAvg,HumidityLow,PressureMaxIn,PressureMinIn,WindSpeedMaxMPH,WindSpeedAvgMPH,GustSpeedMaxMPH,PrecipitationSumIn
2013-1-1,50,41,36,42,35,31,86,79,65,29.87,29.25,11,5,18,0.00
2013-1-2,54,48,41,50,44,35,90,85,78,29.98,29.88,13,5,21,0.00
2013-1-3,54,53,51,50,47,44,87,81,76,30.37,29.98,14,7,24,0.00
2013-1-4,55,52,50,49,46,43,85,81,73,30.44,30.35,14,7,23,0.00
2013-1-5,53,52,49,48,45,43,83,79,74,30.43,30.25,11,6,19,0.00
2013-1-6,50,46,42,46,42,38,90,86,81,30.41,30.17,7,2,11,0.00
2013-1-7,50,49,48,48,46,44,92,89,82,30.17,29.99,6,1,11,0.00
2013-1-8,54,49,42,53,46,38,95,89,82,30.13,29.95,15,3,24,0.00
2013-1-9,51,42,38,47,38,34,93,86,78,30.13,30.03,8,3,13,0.00
2013-1-10,45,40,34,42,37,31,92,89,86,30.03,29.93,4,1,8,0.00
2013-1-11,44,41,38,42,39,36,92,91,89,30.01,29.96,4,0,8,0.00
2013-1-12,44,39,35,38,35,30,90,83,77,30.12,29.94,5,2,9,0.00
2013-1-13,39,37,36,36,33,31,88,85,80,30.13,29.96,7,1,10,0.00
2013-1-14,45,38,34,40,34,28,91,85,78,29.96,29.70,4,2,9,0.00
2013-1-15,43,35,30,39,31,25,88,84,77,29.91,29.79,4,1,7,0.00
2013-1-16,37,32,27,32,27,23,88,81,73,29.97,29.84,4,1,6,0.00
2013-1-17,39,36,35,28,27,25,73,69,58,29.99,29.86,11,3,17,0.00
2013-1-18,42,38,36,32,29,27,82,71,62,29.70,29.58,19,9,28,0.00
2013-1-19,41,38,32,35,29,-100,84,75,65,29.73,29.59,103,7,157,0.00
2013-1-20,38,37,36,28,27,25,71,67,62,29.70,29.55,13,5,20,0.00
2013-1-21,61,40,37,60,32,28,96,73,67,29.54,29.52,8,6,104,0.00
2013-1-22,39,38,37,36,35,33,87,86,83,29.84,29.62,14,6,23,0.00
2013-1-23,38,37,36,34,33,32,86,85,84,29.85,29.83,4,1,10,0.00
2013-1-24,40,37,35,38,33,30,90,84,73,30.05,29.96,6,2,10,0.00
2013-1-25,39,37,35,35,32,29,88,80,71,29.95,29.35,7,3,11,0.00
2013-1-26,48,41,36,42,36,32,89,83,72,29.51,28.95,10,4,20,0.00
2013-1-27,50,44,40,46,39,35,87,81,71,29.16,28.72,21,10,27,0.00
2013-1-28,48,44,40,44,38,34,85,78,69,29.29,28.84,20,10,34,0.00
2013-1-29,52,47,45,50,41,36,91,80,64,29.28,28.91,27,9,45,0.00
2013-1-30,50,45,40,41,36,32,84,70,59,29.58,29.05,20,12,32,0.00
2013-1-31,46,43,41,43,38,33,88,82,71,29.60,29.18,14,5,25,0.00